Time;durP1;ratioP1;P1;durP2;ratioP2;P2;SDS_P1;SDS_P2;PMS_P1;PMS_P2;Temp;Humidity;BMP_temperature;BMP_pressure;BME280_temperature;BME280_humidity;BME280_pressure;Samples;Min_cycle;Max_cycle;Signal;HPM_P1;HPM_P2
2023/07/12 00:00:15;;;;;;;2.57;1.40;;;23.10;99.90;;;;;;5032764;28;21017;-82
2023/07/12 00:03:01;;;;;;;3.50;1.83;;;23.10;99.90;;;;;;5017627;28;20463;-82
2023/07/12 00:05:39;;;;;;;3.73;1.70;;;23.10;99.90;;;;;;5030255;28;20877;-80
2023/07/12 00:08:37;;;;;;;3.70;1.57;;;23.10;99.90;;;;;;5019110;28;20497;-82
2023/07/12 00:11:15;;;;;;;2.20;1.60;;;23.10;99.90;;;;;;5023267;28;20440;-82
2023/07/12 00:13:47;;;;;;;2.33;1.70;;;23.10;99.90;;;;;;5015523;28;20435;-82
2023/07/12 00:16:36;;;;;;;2.37;1.20;;;23.10;99.90;;;;;;5032002;28;20466;-82
2023/07/12 00:19:12;;;;;;;3.30;1.60;;;23.10;99.90;;;;;;5022650;28;20512;-82
2023/07/12 00:21:39;;;;;;;3.10;1.60;;;23.10;99.90;;;;;;5018465;28;20460;-81
2023/07/12 00:24:10;;;;;;;2.73;1.80;;;23.10;99.90;;;;;;5023544;28;20513;-82
2023/07/12 00:27:02;;;;;;;4.97;2.30;;;23.10;99.90;;;;;;5022258;28;20455;-81
2023/07/12 00:29:36;;;;;;;4.70;2.13;;;23.00;1.00;;;;;;5034714;28;20488;-80
2023/07/12 00:32:45;;;;;;;5.90;2.17;;;22.90;1.00;;;;;;5017089;28;20479;-81
2023/07/12 00:35:22;;;;;;;10.47;4.43;;;22.70;99.90;;;;;;5006416;28;20431;-84
2023/07/12 00:38:27;;;;;;;7.37;3.80;;;22.50;99.90;;;;;;5016758;28;20459;-81
2023/07/12 00:41:15;;;;;;;5.70;3.10;;;22.20;1.00;;;;;;5024057;28;20532;-80
2023/07/12 00:43:53;;;;;;;5.83;3.30;;;22.10;1.00;;;;;;5022611;28;20429;-81
2023/07/12 00:46:55;;;;;;;4.80;2.80;;;22.00;1.00;;;;;;5016530;28;20428;-81
2023/07/12 00:49:47;;;;;;;7.00;2.97;;;22.00;99.90;;;;;;5010668;28;20548;-82
2023/07/12 00:52:47;;;;;;;5.63;2.27;;;21.90;99.90;;;;;;5025530;28;20463;-82
2023/07/12 00:55:58;;;;;;;7.00;2.90;;;21.90;99.90;;;;;;5028183;28;20450;-82
2023/07/12 00:58:48;;;;;;;9.20;2.90;;;21.80;1.00;;;;;;5022039;28;20425;-82
2023/07/12 01:01:26;;;;;;;4.90;2.40;;;21.70;1.00;;;;;;5017964;28;20449;-81
2023/07/12 01:03:58;;;;;;;4.30;2.47;;;21.70;1.00;;;;;;5021484;28;20565;-82
2023/07/12 01:06:24;;;;;;;3.10;2.30;;;21.70;1.00;;;;;;5031846;28;20425;-81
2023/07/12 01:09:19;;;;;;;7.83;2.57;;;21.60;99.90;;;;;;5020730;28;21668;-82
2023/07/12 01:11:49;;;;;;;3.70;2.33;;;21.50;99.90;;;;;;5011835;28;20474;-82
2023/07/12 01:14:17;;;;;;;6.13;2.70;;;21.50;99.90;;;;;;5024874;28;20501;-84
2023/07/12 01:17:00;;;;;;;4.07;2.50;;;21.40;99.90;;;;;;5019508;28;20463;-80
2023/07/12 01:19:29;;;;;;;7.17;2.13;;;21.40;79.90;;;;;;5037176;28;20523;-82
2023/07/12 01:22:05;;;;;;;8.57;2.40;;;21.40;81.60;;;;;;5032158;28;20491;-82
2023/07/12 01:24:37;;;;;;;7.90;2.80;;;21.30;1.00;;;;;;5018646;28;20555;-81
2023/07/12 01:27:24;;;;;;;4.13;2.17;;;21.30;1.00;;;;;;5019437;28;20445;-81
2023/07/12 01:30:01;;;;;;;8.17;2.90;;;21.30;1.00;;;;;;5018192;28;20483;-82
2023/07/12 01:32:35;;;;;;;7.43;2.40;;;21.30;99.90;;;;;;5030129;28;20472;-82
2023/07/12 01:35:18;;;;;;;5.03;2.30;;;21.40;99.90;;;;;;5025994;28;20445;-82
2023/07/12 01:38:02;;;;;;;7.67;2.93;;;21.40;1.00;;;;;;5014949;28;20441;-82
2023/07/12 01:40:36;;;;;;;4.60;2.60;;;21.50;99.90;;;;;;5023521;28;20883;-82
2023/07/12 01:43:13;;;;;;;10.00;3.63;;;21.40;99.90;;;;;;5019386;28;20467;-81
2023/07/12 01:45:38;;;;;;;9.33;3.43;;;21.40;1.00;;;;;;5016423;28;20446;-82
2023/07/12 01:48:14;;;;;;;9.20;3.00;;;21.30;1.00;;;;;;5029023;28;20448;-82
2023/07/12 01:50:45;;;;;;;7.90;2.90;;;21.30;1.00;;;;;;5025976;28;20218;-82
2023/07/12 01:53:31;;;;;;;6.40;3.40;;;21.20;67.50;;;;;;5015763;28;20467;-82
2023/07/12 01:56:04;;;;;;;5.93;2.97;;;21.20;99.90;;;;;;5017316;28;20488;-81
2023/07/12 01:58:56;;;;;;;4.47;2.30;;;21.20;99.90;;;;;;5023995;28;20472;-82
2023/07/12 02:01:46;;;;;;;8.63;3.00;;;21.20;99.90;;;;;;5008915;28;21035;-82
2023/07/12 02:04:41;;;;;;;7.23;3.33;;;21.20;99.90;;;;;;5022633;28;20443;-82
2023/07/12 02:10:33;;;;;;;6.90;3.00;;;21.20;99.90;;;;;;5018896;28;20472;-82
2023/07/12 02:12:59;;;;;;;5.70;2.67;;;21.20;1.00;;;;;;5018090;28;20519;-81
2023/07/12 02:15:43;;;;;;;6.57;2.53;;;21.10;99.90;;;;;;5022758;28;20935;-82
2023/07/12 02:18:26;;;;;;;6.90;2.93;;;21.00;1.00;;;;;;5024134;28;20434;-82
2023/07/12 02:20:52;;;;;;;7.57;3.73;;;21.00;1.00;;;;;;5018719;28;20468;-82
2023/07/12 02:23:28;;;;;;;4.67;2.50;;;21.00;99.90;;;;;;5015796;28;20441;-80
2023/07/12 02:25:56;;;;;;;3.73;2.77;;;20.90;1.00;;;;;;5023414;28;20185;-82
2023/07/12 02:29:01;;;;;;;;;;;;;;;;;;;;;
2023/07/12 02:31:34;;;;;;;3.80;2.30;;;20.90;11.20;;;;;;5021262;28;20540;-83
2023/07/12 02:34:05;;;;;;;4.47;2.10;;;20.80;1.00;;;;;;5018041;28;20445;-82
2023/07/12 02:36:49;;;;;;;;;;;;;;;;;;;;;
2023/07/12 02:39:15;;;;;;;4.90;2.03;;;20.70;99.90;;;;;;5034165;28;20543;-82
2023/07/12 02:41:40;;;;;;;3.30;1.70;;;20.50;99.90;;;;;;5025484;28;20502;-82
2023/07/12 02:44:16;;;;;;;9.90;2.63;;;20.40;99.90;;;;;;5023907;28;20198;-81
2023/07/12 02:46:53;;;;;;;5.10;1.93;;;20.10;1.00;;;;;;5018393;28;20274;-82
2023/07/12 02:49:31;;;;;;;3.30;1.90;;;20.00;1.00;;;;;;5011139;28;20527;-82
2023/07/12 02:52:05;;;;;;;6.10;2.13;;;19.80;1.00;;;;;;5015461;28;20474;-82
2023/07/12 02:54:43;;;;;;;4.17;1.93;;;19.70;99.90;;;;;;5006257;28;20475;-82
2023/07/12 02:57:34;;;;;;;2.50;2.13;;;19.50;57.70;;;;;;5024430;28;20435;-82
2023/07/12 03:00:21;;;;;;;4.63;2.30;;;19.40;99.90;;;;;;5018779;28;20444;-81
2023/07/12 03:02:46;;;;;;;4.13;2.27;;;19.30;99.90;;;;;;5017013;28;20464;-82
2023/07/12 03:05:25;;;;;;;7.50;1.60;;;19.30;1.00;;;;;;5023505;28;20542;-82
2023/07/12 03:08:05;;;;;;;5.43;2.00;;;19.30;1.00;;;;;;5009327;28;20628;-81
2023/07/12 03:10:31;;;;;;;5.43;1.80;;;19.20;1.00;;;;;;5017356;28;20498;-81
2023/07/12 03:12:57;;;;;;;5.83;2.07;;;19.20;1.00;;;;;;5015098;28;20470;-79
2023/07/12 03:15:23;;;;;;;2.33;1.90;;;19.20;1.00;;;;;;5017517;28;20443;-82
2023/07/12 03:17:49;;;;;;;2.50;1.27;;;19.30;99.90;;;;;;5016243;28;20251;-83
2023/07/12 03:20:14;;;;;;;5.57;2.00;;;19.50;1.00;;;;;;5025096;28;20446;-83
2023/07/12 03:22:40;;;;;;;4.10;1.80;;;19.50;27.40;;;;;;5029700;28;20208;-80
2023/07/12 03:25:06;;;;;;;5.40;2.40;;;19.50;1.00;;;;;;5035811;28;20190;-83
2023/07/12 03:27:31;;;;;;;3.87;2.10;;;19.40;99.90;;;;;;5024447;28;20206;-83
2023/07/12 03:29:57;;;;;;;8.23;2.33;;;19.40;99.90;;;;;;5018208;28;20610;-82
2023/07/12 03:32:24;;;;;;;4.20;2.17;;;19.30;1.00;;;;;;5022235;28;20581;-82
2023/07/12 03:34:50;;;;;;;4.53;2.00;;;19.30;1.00;;;;;;5021129;28;20213;-83
2023/07/12 03:37:15;;;;;;;4.13;2.03;;;19.20;99.90;;;;;;5027943;28;20509;-83
2023/07/12 03:39:41;;;;;;;3.83;2.27;;;19.20;1.00;;;;;;5024769;28;20264;-82
2023/07/12 03:42:06;;;;;;;7.63;2.03;;;19.10;99.90;;;;;;5022917;28;20199;-83
2023/07/12 03:44:32;;;;;;;3.80;1.77;;;19.10;99.90;;;;;;5026111;28;20630;-83
2023/07/12 03:47:01;;;;;;;2.27;1.50;;;19.00;99.90;;;;;;5030037;28;20288;-83
2023/07/12 03:49:27;;;;;;;2.53;1.70;;;18.90;99.90;;;;;;5033416;28;20207;-84
2023/07/12 03:51:53;;;;;;;4.37;1.30;;;18.90;99.90;;;;;;5031149;28;20989;-82
2023/07/12 03:54:20;;;;;;;2.17;1.40;;;18.80;99.90;;;;;;5021275;28;20444;-83
2023/07/12 03:56:45;;;;;;;2.47;1.87;;;18.80;99.90;;;;;;5021134;28;20194;-83
2023/07/12 03:59:11;;;;;;;2.00;1.43;;;18.70;1.00;;;;;;5027189;28;20907;-83
2023/07/12 04:01:36;;;;;;;2.53;1.67;;;18.70;1.00;;;;;;5034449;28;20227;-83
2023/07/12 04:04:03;;;;;;;3.97;1.53;;;18.70;99.90;;;;;;5026855;28;20201;-83
2023/07/12 04:06:28;;;;;;;4.07;1.63;;;18.70;99.90;;;;;;5028907;28;20185;-82
2023/07/12 04:09:14;;;;;;;2.70;1.30;;;18.70;99.90;;;;;;5024228;28;20451;-83
2023/07/12 04:11:43;;;;;;;2.30;1.80;;;18.70;99.90;;;;;;5022233;28;20305;-82
2023/07/12 04:14:13;;;;;;;3.33;1.60;;;18.70;99.90;;;;;;5022477;28;20454;-82
2023/07/12 04:16:47;;;;;;;3.03;1.60;;;18.80;99.90;;;;;;5024620;28;20450;-83
2023/07/12 04:19:13;;;;;;;3.60;1.97;;;18.80;74.40;;;;;;5024914;28;20477;-82
2023/07/12 04:21:38;;;;;;;3.10;1.50;;;18.70;99.90;;;;;;5021380;28;20471;-82
2023/07/12 04:24:04;;;;;;;3.10;1.57;;;18.70;99.90;;;;;;5021120;28;20264;-82
2023/07/12 04:26:30;;;;;;;2.47;1.63;;;18.70;99.90;;;;;;5025012;28;20219;-85
2023/07/12 04:28:57;;;;;;;5.50;2.00;;;18.80;99.90;;;;;;5034124;28;20219;-82
2023/07/12 04:31:23;;;;;;;2.20;1.50;;;18.80;99.90;;;;;;5027909;28;21728;-83
2023/07/12 04:33:49;;;;;;;3.20;1.67;;;18.90;62.60;;;;;;5028743;28;20518;-83
2023/07/12 04:36:17;;;;;;;3.50;1.87;;;18.90;1.00;;;;;;5027240;28;20545;-83
2023/07/12 04:38:42;;;;;;;2.50;1.97;;;18.90;33.70;;;;;;5019666;28;20186;-84
2023/07/12 04:41:08;;;;;;;4.33;1.67;;;18.90;1.90;;;;;;5029594;28;20451;-83
2023/07/12 04:43:34;;;;;;;4.53;1.90;;;19.00;99.90;;;;;;5034559;28;20784;-83
2023/07/12 04:46:00;;;;;;;3.07;1.90;;;19.00;99.90;;;;;;5034378;28;20221;-83
2023/07/12 04:48:26;;;;;;;3.77;1.83;;;19.00;99.90;;;;;;5024789;28;20185;-83
2023/07/12 04:50:54;;;;;;;2.20;1.63;;;19.00;60.80;;;;;;5031954;28;20872;-82
2023/07/12 04:53:21;;;;;;;3.03;1.60;;;19.20;1.00;;;;;;5018166;28;20438;-83
2023/07/12 04:55:52;;;;;;;2.07;1.47;;;19.20;99.90;;;;;;5030802;28;20454;-82
2023/07/12 04:58:21;;;;;;;3.83;2.00;;;19.10;99.90;;;;;;5031829;28;20472;-83
2023/07/12 05:00:46;;;;;;;2.77;1.60;;;19.10;99.90;;;;;;5023829;28;20477;-83
2023/07/12 05:03:12;;;;;;;3.43;1.60;;;19.10;99.90;;;;;;5017166;28;20466;-83
2023/07/12 05:05:39;;;;;;;3.77;1.60;;;19.10;99.90;;;;;;5016818;28;20186;-83
2023/07/12 05:08:05;;;;;;;3.47;1.47;;;19.00;99.90;;;;;;5033626;28;20441;-83
2023/07/12 05:10:31;;;;;;;2.07;1.43;;;19.00;1.00;;;;;;5028339;28;20502;-83
2023/07/12 05:12:57;;;;;;;3.13;1.43;;;19.00;99.90;;;;;;5026607;28;20457;-83
2023/07/12 05:15:23;;;;;;;5.47;1.30;;;19.00;99.90;;;;;;5025178;28;20496;-83
2023/07/12 05:17:48;;;;;;;1.90;1.40;;;19.00;99.90;;;;;;5023334;28;20198;-82
2023/07/12 05:20:16;;;;;;;4.70;1.30;;;19.00;99.90;;;;;;5019447;28;20290;-83
2023/07/12 05:22:43;;;;;;;2.93;1.60;;;19.10;1.00;;;;;;5021574;28;20210;-83
2023/07/12 05:25:09;;;;;;;1.90;1.40;;;19.20;99.90;;;;;;5030838;28;20440;-83
2023/07/12 05:27:35;;;;;;;4.27;1.50;;;19.20;99.90;;;;;;5016293;28;20504;-83
2023/07/12 05:30:00;;;;;;;3.30;2.07;;;19.20;1.00;;;;;;5020148;28;20466;-83
2023/07/12 05:32:26;;;;;;;4.30;1.57;;;19.30;1.00;;;;;;5017372;28;20229;-82
2023/07/12 05:34:52;;;;;;;3.60;2.00;;;19.30;99.90;;;;;;5032470;28;20193;-83
2023/07/12 05:37:18;;;;;;;3.77;1.80;;;19.40;1.00;;;;;;5028508;28;20568;-83
2023/07/12 05:39:43;;;;;;;3.83;2.10;;;19.40;99.90;;;;;;5010511;28;20214;-83
2023/07/12 05:42:09;;;;;;;7.23;1.73;;;19.40;76.00;;;;;;5024605;28;20211;-83
2023/07/12 05:44:34;;;;;;;2.00;1.47;;;19.60;1.00;;;;;;5018704;28;20186;-83
2023/07/12 05:47:00;;;;;;;1.90;1.50;;;20.00;1.00;;;;;;5016508;28;20674;-83
2023/07/12 05:49:26;;;;;;;6.30;1.57;;;20.40;1.00;;;;;;5017977;28;20179;-83
2023/07/12 05:51:52;;;;;;;4.70;2.20;;;20.80;73.20;;;;;;5027284;28;21047;-83
2023/07/12 05:54:17;;;;;;;3.33;1.63;;;21.30;99.90;;;;;;5024503;28;20184;-83
2023/07/12 05:56:43;;;;;;;4.00;1.63;;;21.60;99.90;;;;;;5020437;28;20451;-83
2023/07/12 05:59:09;;;;;;;4.13;2.20;;;21.70;99.90;;;;;;5018060;28;20203;-83
2023/07/12 06:01:35;;;;;;;3.63;1.87;;;21.70;95.50;;;;;;5017438;28;20362;-83
2023/07/12 06:04:00;;;;;;;4.57;1.90;;;21.80;24.50;;;;;;5019705;28;20459;-83
2023/07/12 06:06:26;;;;;;;6.40;2.40;;;21.90;1.40;;;;;;5022984;28;20193;-83
2023/07/12 06:08:51;;;;;;;4.70;2.07;;;21.90;1.00;;;;;;5024859;28;20197;-82
2023/07/12 06:11:20;;;;;;;5.07;2.33;;;22.10;1.00;;;;;;5017743;28;20213;-85
2023/07/12 06:13:45;;;;;;;3.10;1.77;;;22.50;1.00;;;;;;5015163;28;20252;-84
2023/07/12 06:16:11;;;;;;;5.77;1.53;;;23.40;1.00;;;;;;5021784;28;20440;-84
2023/07/12 06:18:36;;;;;;;4.27;2.30;;;25.00;99.90;;;;;;5021804;28;20187;-84
2023/07/12 06:21:04;;;;;;;2.30;1.60;;;26.00;99.90;;;;;;5014790;28;20550;-84
2023/07/12 06:23:30;;;;;;;4.63;1.70;;;27.30;99.90;;;;;;5020457;28;20218;-85
2023/07/12 06:25:59;;;;;;;3.50;1.80;;;29.80;99.90;;;;;;5017520;28;20445;-84
2023/07/12 06:28:57;;;;;;;4.03;1.53;;;31.30;99.90;;;;;;5014841;28;20186;-84
2023/07/12 06:31:23;;;;;;;4.60;1.53;;;31.90;99.90;;;;;;5022389;28;20743;-84
2023/07/12 06:34:03;;;;;;;2.97;1.40;;;32.40;99.90;;;;;;5021239;28;20456;-84
2023/07/12 06:36:30;;;;;;;7.60;1.80;;;31.50;99.90;;;;;;5011470;28;20809;-84
2023/07/12 06:41:59;;;;;;;2.93;1.50;;;29.50;99.90;;;;;;5010997;28;20517;-84
2023/07/12 06:44:35;;;;;;;4.17;1.83;;;27.60;99.90;;;;;;5020559;28;20433;-83
2023/07/12 06:47:04;;;;;;;4.10;1.83;;;26.40;99.90;;;;;;5018746;28;20536;-84
2023/07/12 06:49:32;;;;;;;4.60;1.90;;;25.60;99.90;;;;;;5018594;28;21082;-85
2023/07/12 06:51:57;;;;;;;3.80;1.83;;;25.30;99.90;;;;;;5024457;28;20461;-84
2023/07/12 06:54:23;;;;;;;4.13;1.67;;;25.30;99.90;;;;;;5018979;28;20430;-85
2023/07/12 06:56:49;;;;;;;4.00;1.50;;;25.20;99.90;;;;;;5027495;28;20229;-84
2023/07/12 06:59:23;;;;;;;7.67;2.07;;;24.90;99.90;;;;;;5021866;28;20189;-84
2023/07/12 07:01:58;;;;;;;4.73;1.97;;;24.60;99.90;;;;;;5024342;28;20229;-84
2023/07/12 07:04:33;;;;;;;4.13;2.10;;;24.20;99.90;;;;;;5022647;28;20466;-83
2023/07/12 07:06:59;;;;;;;6.70;2.00;;;23.90;99.90;;;;;;5015408;28;20470;-84
2023/07/12 07:09:25;;;;;;;3.73;1.87;;;23.70;99.90;;;;;;5032563;28;20569;-83
2023/07/12 07:11:50;;;;;;;8.03;2.37;;;23.40;99.90;;;;;;5026513;28;20204;-84
2023/07/12 07:14:23;;;;;;;3.83;1.90;;;23.40;99.90;;;;;;5031394;28;20212;-83
2023/07/12 07:16:48;;;;;;;3.70;2.00;;;23.70;99.90;;;;;;5032734;28;20196;-83
2023/07/12 07:19:14;;;;;;;5.53;1.87;;;24.70;99.90;;;;;;5017899;28;20465;-84
2023/07/12 07:21:41;;;;;;;3.93;2.17;;;26.70;99.90;;;;;;5026653;28;20203;-83
2023/07/12 07:24:07;;;;;;;6.03;2.17;;;26.30;99.90;;;;;;5025181;28;20200;-84
2023/07/12 07:26:35;;;;;;;4.80;1.77;;;29.70;99.90;;;;;;5030040;28;20512;-84
2023/07/12 07:29:00;;;;;;;4.47;2.00;;;29.20;99.90;;;;;;5023628;28;20194;-84
2023/07/12 07:31:26;;;;;;;5.40;1.30;;;29.60;99.90;;;;;;5016090;28;20488;-84
2023/07/12 07:33:54;;;;;;;5.93;1.80;;;30.10;99.90;;;;;;5012403;28;20248;-84
2023/07/12 07:36:25;;;;;;;4.10;1.90;;;29.10;99.10;;;;;;5017111;28;20193;-84
2023/07/12 07:39:00;;;;;;;3.60;1.63;;;29.10;98.30;;;;;;5019915;28;20547;-83
2023/07/12 07:41:31;;;;;;;3.30;1.57;;;30.30;98.30;;;;;;5010287;28;20491;-84
2023/07/12 07:43:56;;;;;;;3.93;1.80;;;32.90;99.90;;;;;;5010532;28;20437;-82
2023/07/12 07:46:22;;;;;;;3.80;1.60;;;33.90;94.80;;;;;;5017149;28;20434;-83
2023/07/12 07:48:48;;;;;;;4.03;1.77;;;38.30;94.20;;;;;;5012162;28;20191;-83
2023/07/12 07:51:14;;;;;;;3.60;1.60;;;40.30;81.00;;;;;;5014804;28;20494;-83
2023/07/12 07:53:40;;;;;;;3.93;1.30;;;41.00;59.90;;;;;;5001800;28;20748;-83
2023/07/12 07:56:08;;;;;;;2.97;1.37;;;40.30;50.10;;;;;;5010318;28;20264;-84
2023/07/12 07:58:34;;;;;;;3.80;1.30;;;43.40;46.60;;;;;;5016888;28;20264;-83
2023/07/12 08:01:00;;;;;;;1.50;1.10;;;43.80;39.60;;;;;;5005376;28;20521;-83
2023/07/12 08:03:30;;;;;;;2.80;1.30;;;45.80;33.40;;;;;;5008469;28;20202;-83
2023/07/12 08:06:06;;;;;;;2.63;1.30;;;43.40;15.30;;;;;;5010459;28;20893;-83
2023/07/12 08:08:34;;;;;;;5.20;1.50;;;39.10;8.80;;;;;;5018737;28;20443;-83
2023/07/12 08:11:06;;;;;;;4.40;1.50;;;41.90;11.70;;;;;;5012947;28;20465;-83
2023/07/12 08:13:32;;;;;;;2.90;1.53;;;42.00;8.00;;;;;;5016359;28;20484;-83
2023/07/12 08:15:57;;;;;;;6.00;1.50;;;39.10;3.30;;;;;;5015180;28;20583;-82
2023/07/12 08:18:23;;;;;;;3.83;1.67;;;36.70;1.00;;;;;;5024054;28;20186;-82
2023/07/12 08:20:56;;;;;;;4.97;1.57;;;34.40;1.00;;;;;;5010665;28;20326;-83
2023/07/12 08:23:23;;;;;;;4.50;1.20;;;37.50;5.40;;;;;;5015442;28;20824;-83
2023/07/12 08:25:53;;;;;;;6.63;1.63;;;39.00;4.10;;;;;;5020293;28;20430;-82
2023/07/12 08:28:19;;;;;;;3.20;1.10;;;39.10;2.90;;;;;;5015702;28;20955;-83
2023/07/12 08:30:44;;;;;;;4.50;1.30;;;41.00;3.70;;;;;;5019386;28;20465;-83
2023/07/12 08:33:13;;;;;;;6.37;1.47;;;41.60;2.50;;;;;;5018756;28;20225;-84
2023/07/12 08:35:39;;;;;;;3.27;1.23;;;43.50;1.00;;;;;;5015602;28;20265;-83
2023/07/12 08:38:05;;;;;;;5.77;1.40;;;45.50;1.00;;;;;;5011558;28;20599;-84
2023/07/12 08:40:30;;;;;;;2.83;1.27;;;46.10;1.00;;;;;;5006045;28;20182;-83
2023/07/12 08:42:56;;;;;;;3.93;1.43;;;46.80;1.00;;;;;;5013275;28;20217;-84
2023/07/12 08:45:25;;;;;;;2.87;1.20;;;47.30;1.00;;;;;;5017604;28;20563;-84
2023/07/12 08:48:06;;;;;;;4.43;1.17;;;48.50;1.00;;;;;;5014958;28;20226;-84
2023/07/12 08:50:44;;;;;;;3.07;1.20;;;45.70;1.00;;;;;;5004631;28;20537;-83
2023/07/12 08:53:41;;;;;;;2.90;1.23;;;46.30;1.00;;;;;;5009663;28;20469;-83
2023/07/12 08:56:18;;;;;;;2.67;1.30;;;46.30;1.00;;;;;;5018582;28;20441;-84
2023/07/12 08:58:47;;;;;;;4.20;1.10;;;44.10;1.00;;;;;;5026439;28;20433;-84
2023/07/12 09:01:50;;;;;;;3.10;1.40;;;43.80;1.00;;;;;;5019571;28;20513;-83
2023/07/12 09:04:31;;;;;;;5.10;1.90;;;43.40;1.00;;;;;;5018646;28;20472;-84
2023/07/12 09:07:03;;;;;;;5.20;1.87;;;41.40;1.00;;;;;;5018125;28;20970;-84
2023/07/12 09:09:34;;;;;;;4.03;1.57;;;41.70;1.00;;;;;;5025584;28;20440;-83
2023/07/12 09:12:01;;;;;;;5.10;1.50;;;42.10;1.00;;;;;;5021773;28;20516;-83
2023/07/12 09:14:29;;;;;;;3.70;1.20;;;43.50;1.00;;;;;;5020825;28;20429;-83
2023/07/12 09:17:01;;;;;;;2.47;1.30;;;42.10;1.00;;;;;;5017031;28;20441;-84
2023/07/12 09:19:32;;;;;;;2.77;1.27;;;43.10;1.00;;;;;;5009269;28;20527;-83
2023/07/12 09:22:13;;;;;;;7.03;1.33;;;43.70;1.00;;;;;;5012128;28;20470;-83
2023/07/12 09:24:49;;;;;;;3.00;1.70;;;41.90;1.00;;;;;;5015935;28;20430;-83
2023/07/12 09:27:18;;;;;;;2.53;1.13;;;42.50;1.00;;;;;;5021033;28;20553;-84
2023/07/12 09:29:59;;;;;;;2.97;1.53;;;43.40;1.00;;;;;;5019129;28;20468;-83
2023/07/12 09:32:42;;;;;;;6.03;1.60;;;43.20;1.00;;;;;;5013979;28;20571;-84
2023/07/12 09:35:29;;;;;;;6.17;1.70;;;39.90;1.00;;;;;;5020414;28;20553;-83
2023/07/12 09:38:04;;;;;;;7.30;1.40;;;40.10;1.00;;;;;;5024981;28;20437;-83
2023/07/12 09:40:44;;;;;;;4.47;1.30;;;37.50;1.00;;;;;;5020104;28;20472;-83
2023/07/12 09:43:29;;;;;;;5.33;1.43;;;38.40;1.00;;;;;;5012861;28;20473;-82
2023/07/12 09:46:06;;;;;;;3.50;1.23;;;39.40;1.00;;;;;;4999766;28;20811;-84
2023/07/12 09:48:56;;;;;;;4.03;1.30;;;40.80;1.00;;;;;;5020248;28;20461;-83
2023/07/12 09:51:40;;;;;;;4.10;1.30;;;42.10;1.00;;;;;;4998149;28;20561;-83
2023/07/12 09:54:11;;;;;;;1.70;0.93;;;42.90;1.00;;;;;;5011770;28;20440;-83
2023/07/12 09:56:52;;;;;;;3.73;1.20;;;42.10;1.00;;;;;;5010043;28;20445;-84
2023/07/12 09:59:51;;;;;;;2.17;1.00;;;42.40;1.00;;;;;;5016490;28;20549;-84
2023/07/12 10:02:44;;;;;;;4.77;1.43;;;42.90;1.00;;;;;;5010918;28;20485;-84
2023/07/12 10:05:19;;;;;;;3.50;1.10;;;42.70;1.00;;;;;;5019443;28;20438;-83
2023/07/12 10:08:05;;;;;;;5.40;1.30;;;42.60;1.00;;;;;;5014735;28;20982;-83
2023/07/12 10:10:45;;;;;;;3.30;1.03;;;42.90;1.00;;;;;;4980337;28;20434;-82
2023/07/12 10:13:12;;;;;;;3.17;1.13;;;42.30;1.00;;;;;;5010434;28;20457;-83
2023/07/12 10:15:41;;;;;;;3.50;1.70;;;41.10;1.00;;;;;;5022095;28;20437;-83
2023/07/12 10:18:17;;;;;;;5.00;1.30;;;39.70;1.00;;;;;;5025806;28;20437;-83
2023/07/12 10:20:43;;;;;;;2.90;1.20;;;40.60;1.00;;;;;;5011922;28;20476;-83
2023/07/12 10:23:12;;;;;;;2.90;1.10;;;41.30;1.00;;;;;;5012290;28;20533;-83
2023/07/12 10:25:44;;;;;;;5.37;1.87;;;41.80;1.00;;;;;;5013838;28;20519;-83
2023/07/12 10:28:38;;;;;;;2.20;1.03;;;41.10;1.00;;;;;;5010680;28;20445;-82
2023/07/12 10:31:27;;;;;;;3.03;1.10;;;38.30;1.00;;;;;;5017834;28;20441;-83
2023/07/12 10:34:07;;;;;;;4.10;1.30;;;35.90;1.00;;;;;;5017721;28;20448;-83
2023/07/12 10:36:34;;;;;;;7.73;1.37;;;35.00;1.00;;;;;;5016651;28;20452;-82
2023/07/12 10:39:01;;;;;;;3.43;1.17;;;35.80;1.00;;;;;;5015271;28;20430;-81
2023/07/12 10:41:35;;;;;;;3.17;1.27;;;37.40;1.00;;;;;;5021274;28;20478;-81
2023/07/12 10:44:08;;;;;;;4.00;1.20;;;37.60;1.00;;;;;;5014919;28;20457;-81
2023/07/12 10:46:38;;;;;;;4.00;1.50;;;37.70;1.00;;;;;;5014277;28;20438;-81
2023/07/12 10:49:14;;;;;;;3.77;1.30;;;36.30;1.00;;;;;;5017241;28;20517;-82
2023/07/12 10:51:42;;;;;;;3.93;1.43;;;36.10;1.00;;;;;;5014280;28;20496;-81
2023/07/12 10:54:30;;;;;;;5.50;1.83;;;35.50;1.00;;;;;;5027945;28;20974;-81
2023/07/12 10:57:04;;;;;;;3.37;1.20;;;34.50;1.00;;;;;;5014118;28;20440;-81
2023/07/12 10:59:32;;;;;;;4.27;1.60;;;34.70;1.00;;;;;;5015955;28;20473;-81
2023/07/12 11:02:04;;;;;;;2.83;1.20;;;34.30;1.00;;;;;;5014076;28;20453;-82
2023/07/12 11:04:29;;;;;;;3.60;1.13;;;35.70;1.00;;;;;;5011271;28;20476;-82
2023/07/12 11:06:57;;;;;;;3.50;1.00;;;37.20;1.00;;;;;;5012044;28;20434;-82
2023/07/12 11:09:24;;;;;;;3.30;1.43;;;36.10;1.00;;;;;;5020522;28;20190;-82
2023/07/12 11:11:55;;;;;;;4.13;1.40;;;36.10;1.00;;;;;;5017703;28;20467;-82
2023/07/12 11:14:43;;;;;;;4.03;1.20;;;35.90;1.00;;;;;;5020647;28;20505;-81
2023/07/12 11:17:11;;;;;;;3.73;1.10;;;35.90;1.00;;;;;;5011890;28;20426;-83
2023/07/12 11:19:45;;;;;;;3.73;1.50;;;36.60;1.00;;;;;;5012063;28;20450;-82
2023/07/12 11:22:18;;;;;;;4.07;1.30;;;37.10;1.00;;;;;;5008342;28;20492;-82
2023/07/12 11:25:06;;;;;;;3.50;1.07;;;36.10;1.00;;;;;;5013468;28;20441;-82
2023/07/12 11:27:44;;;;;;;6.30;1.67;;;37.20;1.00;;;;;;5015165;28;20464;-83
2023/07/12 11:30:23;;;;;;;5.17;1.27;;;38.00;1.00;;;;;;5010642;28;20564;-82
2023/07/12 11:32:53;;;;;;;3.23;1.10;;;38.90;1.00;;;;;;5016709;28;20476;-82
2023/07/12 11:36:01;;;;;;;3.33;1.40;;;39.40;1.00;;;;;;5016166;28;20440;-81
2023/07/12 11:38:30;;;;;;;3.30;1.00;;;38.00;1.00;;;;;;5003328;28;20446;-82
2023/07/12 11:41:01;;;;;;;2.57;1.30;;;37.80;1.00;;;;;;5013593;28;20438;-82
2023/07/12 11:43:34;;;;;;;4.23;1.20;;;37.80;1.00;;;;;;5017033;28;21387;-82
2023/07/12 11:46:01;;;;;;;3.60;1.20;;;37.20;1.00;;;;;;5039384;28;20437;-81
2023/07/12 11:48:33;;;;;;;3.70;1.10;;;35.80;1.00;;;;;;5022525;28;20456;-82
2023/07/12 11:51:03;;;;;;;4.23;1.20;;;35.60;1.00;;;;;;5019419;28;21937;-82
2023/07/12 11:53:28;;;;;;;4.73;1.53;;;36.10;1.00;;;;;;5021203;28;20457;-82
2023/07/12 11:55:54;;;;;;;4.97;1.40;;;36.30;1.00;;;;;;5015987;28;20445;-82
2023/07/12 11:58:21;;;;;;;4.00;1.17;;;36.60;1.00;;;;;;5022886;28;20541;-83
2023/07/12 12:00:49;;;;;;;2.07;0.90;;;37.00;1.00;;;;;;5025364;28;20182;-82
2023/07/12 12:03:17;;;;;;;6.93;1.40;;;37.30;1.00;;;;;;5021591;28;20461;-82
2023/07/12 12:05:44;;;;;;;2.90;1.10;;;37.20;1.00;;;;;;5027242;28;20444;-81
2023/07/12 12:08:25;;;;;;;5.40;1.33;;;35.90;1.00;;;;;;5020174;28;20484;-84
2023/07/12 12:10:51;;;;;;;3.30;1.37;;;34.60;1.00;;;;;;5019696;28;20476;-81
2023/07/12 12:13:17;;;;;;;3.37;1.47;;;33.90;1.00;;;;;;5010202;28;20892;-81
2023/07/12 12:15:47;;;;;;;3.03;0.97;;;34.20;1.00;;;;;;5016992;28;20437;-82
2023/07/12 12:18:18;;;;;;;2.17;1.00;;;34.90;1.00;;;;;;5020595;28;20422;-82
2023/07/12 12:20:57;;;;;;;2.57;1.20;;;34.10;1.00;;;;;;5020341;28;20960;-82
2023/07/12 12:23:41;;;;;;;3.40;1.20;;;34.30;1.00;;;;;;5021439;28;20433;-82
2023/07/12 12:26:20;;;;;;;4.23;1.13;;;35.00;1.00;;;;;;5021235;28;20475;-82
2023/07/12 12:28:52;;;;;;;3.00;1.43;;;35.30;1.00;;;;;;5020803;28;20461;-82
2023/07/12 12:31:21;;;;;;;3.77;1.20;;;35.50;1.00;;;;;;5016921;28;20472;-82
2023/07/12 12:33:59;;;;;;;3.47;1.00;;;35.90;1.00;;;;;;5020605;28;20504;-82
2023/07/12 12:36:27;;;;;;;9.40;1.10;;;36.00;1.00;;;;;;5022727;28;20428;-82
2023/07/12 12:39:17;;;;;;;3.20;1.10;;;35.50;1.00;;;;;;5032877;28;20435;-82
2023/07/12 12:41:53;;;;;;;10.73;1.00;;;35.00;1.00;;;;;;5019190;28;20457;-82
2023/07/12 12:44:20;;;;;;;4.43;1.13;;;34.30;1.00;;;;;;5020614;28;20422;-81
2023/07/12 12:46:51;;;;;;;3.10;0.83;;;33.80;1.00;;;;;;5019158;28;20438;-82
2023/07/12 12:49:17;;;;;;;2.20;0.90;;;34.10;1.00;;;;;;5012136;28;20473;-82
2023/07/12 12:51:42;;;;;;;4.40;1.20;;;34.50;1.00;;;;;;5010572;28;20466;-83
2023/07/12 12:54:09;;;;;;;3.30;0.90;;;34.60;1.00;;;;;;5025816;28;20524;-82
2023/07/12 12:56:35;;;;;;;2.73;1.00;;;34.70;1.00;;;;;;5028270;28;20217;-82
2023/07/12 12:59:03;;;;;;;3.83;1.50;;;34.30;1.00;;;;;;5019007;28;20519;-82
2023/07/12 13:01:29;;;;;;;2.30;0.90;;;33.90;1.00;;;;;;5018716;28;20456;-80
2023/07/12 13:03:55;;;;;;;5.90;1.13;;;34.20;1.00;;;;;;5019912;28;20510;-81
2023/07/12 13:06:22;;;;;;;4.70;1.60;;;33.80;1.00;;;;;;5018566;28;20458;-81
2023/07/12 13:08:47;;;;;;;3.70;1.10;;;33.80;1.00;;;;;;5008642;28;20450;-82
2023/07/12 13:11:13;;;;;;;3.00;0.90;;;33.80;1.00;;;;;;5016278;28;20488;-82
2023/07/12 13:13:42;;;;;;;7.07;1.27;;;34.00;1.00;;;;;;5012315;28;20176;-81
2023/07/12 13:16:17;;;;;;;3.17;1.00;;;34.00;1.00;;;;;;5016737;28;20246;-81
2023/07/12 13:18:44;;;;;;;4.63;1.07;;;34.00;1.00;;;;;;5017327;28;20478;-81
2023/07/12 13:21:17;;;;;;;2.60;0.77;;;33.70;1.00;;;;;;5016369;28;20426;-82
2023/07/12 13:23:43;;;;;;;3.10;1.00;;;33.70;1.00;;;;;;5009947;28;20445;-82
2023/07/12 13:26:20;;;;;;;4.30;1.23;;;33.60;1.00;;;;;;5010037;28;20525;-82
2023/07/12 13:28:46;;;;;;;4.47;1.47;;;33.50;1.00;;;;;;5013521;28;20183;-82